createdAt,value
2023-01-04T00:01:35.291Z,58.00
2023-01-04T00:08:21.135Z,59.00
2023-01-04T00:18:50.235Z,62.20
2023-01-04T00:21:59.935Z,58.60
2023-01-04T00:33:04.067Z,54.50
2023-01-04T00:44:07.703Z,48.40
2023-01-04T00:54:58.378Z,49.20
2023-01-04T01:05:47.867Z,46.10
2023-01-04T01:16:56.673Z,46.40
2023-01-04T01:32:19.898Z,47.10
2023-01-04T01:39:07.958Z,49.60
2023-01-04T01:42:16.302Z,48.90
2023-01-04T01:49:17.028Z,50.80
2023-01-04T01:59:50.536Z,45.40
2023-01-04T02:10:37.207Z,42.50
2023-01-04T02:21:57.204Z,39.00
2023-01-04T02:33:05.187Z,39.00
2023-01-04T02:52:33.217Z,40.50
2023-01-04T02:59:27.515Z,39.20
2023-01-04T03:14:52.210Z,32.10
2023-01-04T03:21:44.358Z,30.80
2023-01-04T03:46:55.166Z,35.70
2023-01-04T03:57:38.747Z,33.10
2023-01-04T04:12:35.214Z,32.20
2023-01-04T04:23:39.130Z,30.90
2023-01-04T04:34:43.436Z,29.40
2023-01-04T04:45:39.968Z,33.30
2023-01-04T04:56:34.287Z,34.10
2023-01-04T05:14:10.273Z,34.50
2023-01-04T05:24:47.482Z,73.50
2023-01-04T05:35:54.443Z,34.60
2023-01-04T05:49:27.407Z,30.60
2023-01-04T05:56:14.748Z,31.70
2023-01-04T06:03:03.525Z,29.10
2023-01-04T06:09:55.439Z,28.10
2023-01-04T06:16:47.704Z,27.30
2023-01-04T06:27:42.533Z,28.30
2023-01-04T06:30:44.580Z,30.60
2023-01-04T06:41:51.842Z,33.00
2023-01-04T06:48:41.707Z,38.80
2023-01-04T07:03:13.558Z,47.30
2023-01-04T07:05:44.926Z,46.00
2023-01-04T07:08:15.447Z,41.80
2023-01-04T07:10:45.376Z,38.80
2023-01-04T07:13:14.100Z,34.80
2023-01-04T07:15:47.035Z,33.40
2023-01-04T07:18:15.373Z,61.20
2023-01-04T07:20:44.391Z,39.20
2023-01-04T07:23:12.768Z,36.50
2023-01-04T07:29:16.316Z,45.30
2023-01-04T07:31:53.477Z,34.20
2023-01-04T07:34:33.379Z,35.00
2023-01-04T07:37:06.225Z,35.90
2023-01-04T07:39:44.285Z,33.10
2023-01-04T07:42:20.018Z,40.90
2023-01-04T07:44:53.916Z,38.90
2023-01-04T07:47:22.279Z,40.00
2023-01-04T07:49:50.527Z,33.40
2023-01-04T07:52:20.583Z,36.90
2023-01-04T07:54:52.862Z,37.90
2023-01-04T07:57:22.164Z,40.30
2023-01-04T07:59:54.488Z,39.40
2023-01-04T08:02:29.406Z,45.00
2023-01-04T08:05:12.762Z,51.40
2023-01-04T08:08:02.180Z,47.70
2023-01-04T08:10:30.599Z,47.10
2023-01-04T08:13:00.169Z,53.50
2023-01-04T08:19:13.953Z,58.10
2023-01-04T08:22:01.592Z,58.90
2023-01-04T09:03:36.399Z,49.70
2023-01-04T09:06:13.918Z,36.80
2023-01-04T09:08:43.650Z,45.30
2023-01-04T09:11:15.750Z,36.70
2023-01-04T09:14:08.299Z,36.20
2023-01-04T09:16:38.511Z,32.40
2023-01-04T09:19:07.067Z,30.30
2023-01-04T09:21:35.876Z,32.00
2023-01-04T09:24:10.186Z,31.50
2023-01-04T09:26:38.359Z,34.40
2023-01-04T09:29:26.532Z,33.90
2023-01-04T09:31:55.705Z,37.00
2023-01-04T09:34:24.314Z,33.60
2023-01-04T09:36:53.980Z,32.50
2023-01-04T09:39:24.218Z,34.10
2023-01-04T09:42:05.361Z,31.70
2023-01-04T09:47:55.122Z,35.00
2023-01-04T09:50:53.500Z,33.30
2023-01-04T09:56:07.101Z,20.90
2023-01-04T09:58:41.131Z,17.50
2023-01-04T10:01:15.913Z,17.50
2023-01-04T10:04:20.898Z,18.40
2023-01-04T10:21:42.568Z,19.10
2023-01-04T10:24:32.213Z,21.30
2023-01-04T10:27:11.541Z,18.50
2023-01-04T10:30:13.583Z,18.90
2023-01-04T10:32:46.530Z,17.80
2023-01-04T10:35:22.621Z,18.90
2023-01-04T10:37:59.219Z,19.10
2023-01-04T10:40:40.396Z,18.10
2023-01-04T10:43:19.961Z,21.10
2023-01-04T10:46:48.362Z,19.90
2023-01-04T10:49:29.263Z,22.00
2023-01-04T10:52:19.829Z,19.30
2023-01-04T10:54:52.972Z,22.50
2023-01-04T10:58:08.934Z,16.60
2023-01-04T11:00:55.278Z,21.50
2023-01-04T11:03:43.034Z,21.20
2023-01-04T11:06:18.339Z,20.30
2023-01-04T11:08:53.040Z,18.30
2023-01-04T11:11:32.714Z,19.90
2023-01-04T11:14:00.915Z,18.20
2023-01-04T11:16:30.315Z,20.00
2023-01-04T11:18:58.748Z,18.30
2023-01-04T11:21:32.618Z,19.00
2023-01-04T11:24:30.525Z,17.40
2023-01-04T11:27:01.384Z,19.00
2023-01-04T11:29:53.108Z,21.00
2023-01-04T11:32:49.788Z,21.00
2023-01-04T11:35:51.120Z,21.50
2023-01-04T11:38:22.746Z,19.50
2023-01-04T11:41:05.984Z,18.30
2023-01-04T11:43:37.905Z,20.00
2023-01-04T11:46:17.993Z,23.00
2023-01-04T11:48:47.579Z,22.60
2023-01-04T11:51:37.065Z,23.80
2023-01-04T11:54:14.257Z,19.00
2023-01-04T11:57:20.261Z,17.60
2023-01-04T12:00:09.320Z,18.90
2023-01-04T12:05:30.833Z,20.00
2023-01-04T12:07:59.479Z,17.00
2023-01-04T12:13:01.502Z,14.90
2023-01-04T12:15:47.154Z,15.80
2023-01-04T12:18:42.375Z,16.80
2023-01-04T12:21:19.917Z,15.40
2023-01-04T12:23:50.667Z,14.10
2023-01-04T12:26:20.806Z,17.20
2023-01-04T12:29:10.728Z,13.70
2023-01-04T12:31:39.013Z,15.20
2023-01-04T12:34:28.629Z,16.00
2023-01-04T12:37:03.109Z,15.40
2023-01-04T12:39:45.830Z,15.10
2023-01-04T12:42:21.209Z,12.60
2023-01-04T12:44:52.170Z,13.90
2023-01-04T12:47:40.149Z,15.30
2023-01-04T12:50:29.384Z,14.40
2023-01-04T12:53:28.992Z,15.30
2023-01-04T12:55:54.512Z,19.00
2023-01-04T12:58:49.786Z,16.90
2023-01-04T13:01:29.259Z,18.90
2023-01-04T13:04:23.920Z,16.10
2023-01-04T13:06:52.540Z,15.10
2023-01-04T13:12:26.529Z,15.20
2023-01-04T13:15:04.576Z,15.20
2023-01-04T13:17:39.958Z,15.00
2023-01-04T13:20:37.302Z,13.10
2023-01-04T13:23:11.068Z,14.70
2023-01-04T13:25:39.244Z,15.00
2023-01-04T13:28:18.162Z,15.40
2023-01-04T13:30:47.322Z,15.80
2023-01-04T13:33:28.732Z,16.30
2023-01-04T13:36:09.970Z,14.20
2023-01-04T13:38:40.428Z,15.00
2023-01-04T13:41:22.348Z,14.00
2023-01-04T13:44:44.092Z,17.10
2023-01-04T13:47:16.944Z,15.10
2023-01-04T13:49:59.024Z,12.00
2023-01-04T13:52:56.468Z,13.00
2023-01-04T13:55:33.373Z,15.60
2023-01-04T13:58:04.187Z,12.00
2023-01-04T14:10:00.141Z,15.80
2023-01-04T14:12:29.160Z,13.30
2023-01-04T14:15:23.395Z,15.20
2023-01-04T14:17:54.996Z,24.30
2023-01-04T14:20:22.335Z,17.60
2023-01-04T14:22:49.098Z,16.90
2023-01-04T14:25:33.657Z,17.80
2023-01-04T14:28:19.241Z,13.50
2023-01-04T14:30:52.867Z,11.80
2023-01-04T14:33:30.081Z,14.00
2023-01-04T14:36:09.116Z,15.90
2023-01-04T14:39:03.907Z,15.10
2023-01-04T14:41:39.975Z,13.90
2023-01-04T14:44:31.360Z,13.00
2023-01-04T14:47:01.068Z,13.00
2023-01-04T14:49:48.766Z,16.20
2023-01-04T14:52:22.548Z,14.60
2023-01-04T14:54:50.026Z,14.50
2023-01-04T14:57:17.027Z,14.40
2023-01-04T14:59:45.450Z,9.60
2023-01-04T15:02:12.932Z,16.40
2023-01-04T15:04:40.049Z,21.30
2023-01-04T15:07:07.029Z,15.80
2023-01-04T15:09:35.726Z,20.90
2023-01-04T15:12:06.211Z,18.70
2023-01-04T15:14:33.048Z,19.10
2023-01-04T15:17:02.607Z,17.50
2023-01-04T15:19:37.314Z,15.40
2023-01-04T15:22:04.836Z,15.20
2023-01-04T15:24:32.354Z,17.60
2023-01-04T15:26:59.703Z,19.40
2023-01-04T15:29:26.746Z,17.30
2023-01-04T15:31:53.667Z,16.90
2023-01-04T15:34:24.738Z,20.40
2023-01-04T15:36:53.437Z,21.70
2023-01-04T15:39:26.602Z,19.50
2023-01-04T15:42:11.684Z,20.20
2023-01-04T15:44:38.604Z,21.60
2023-01-04T15:47:05.493Z,20.10
2023-01-04T15:49:32.579Z,17.70
2023-01-04T15:52:02.368Z,16.50
2023-01-04T15:54:29.264Z,17.60
2023-01-04T15:56:58.535Z,15.80
2023-01-04T15:59:29.559Z,18.60
2023-01-04T16:01:56.894Z,18.50
2023-01-04T16:06:52.381Z,20.70
2023-01-04T16:09:19.652Z,23.40
2023-01-04T16:12:05.248Z,24.00
2023-01-04T16:14:36.470Z,21.70
2023-01-04T16:17:03.259Z,21.60
2023-01-04T16:19:31.770Z,12.80
2023-01-04T16:21:58.613Z,17.40
2023-01-04T16:25:08.565Z,13.70
2023-01-04T16:29:41.760Z,14.90
2023-01-04T16:32:08.789Z,14.40
2023-01-04T16:34:38.957Z,13.50
2023-01-04T16:37:05.859Z,13.40
2023-01-04T16:40:05.405Z,14.40
2023-01-04T16:42:21.965Z,16.30
2023-01-04T16:44:48.767Z,11.20
2023-01-04T16:47:15.816Z,13.70
2023-01-04T16:49:49.604Z,14.90
2023-01-04T16:52:16.838Z,14.80
2023-01-04T16:54:44.960Z,15.90
2023-01-04T16:57:11.855Z,14.80
2023-01-04T16:59:38.861Z,16.50
2023-01-04T17:02:06.468Z,18.00
2023-01-04T17:04:34.666Z,19.50
2023-01-04T17:07:02.931Z,15.70
2023-01-04T17:09:29.971Z,13.60
2023-01-04T17:17:42.791Z,13.50
2023-01-04T17:20:10.014Z,13.30
2023-01-04T17:22:36.866Z,14.60
2023-01-04T17:25:05.561Z,13.70
2023-01-04T17:32:28.269Z,16.90
2023-01-04T17:34:57.062Z,15.80
2023-01-04T17:37:25.982Z,16.00
2023-01-04T17:39:53.768Z,17.60
2023-01-04T17:42:20.853Z,19.00
2023-01-04T17:44:57.290Z,19.30
2023-01-04T17:47:25.303Z,16.10
2023-01-04T17:49:52.150Z,15.40
2023-01-04T17:52:25.920Z,16.60
2023-01-04T17:54:59.047Z,17.20
2023-01-04T17:57:27.682Z,21.60
2023-01-04T17:59:57.388Z,14.90
2023-01-04T18:02:24.106Z,15.50
2023-01-04T18:04:52.847Z,14.60
2023-01-04T18:07:24.380Z,14.40
2023-01-04T18:09:52.574Z,13.90
2023-01-04T18:12:20.492Z,15.80
2023-01-04T18:14:49.409Z,16.70
2023-01-04T18:17:17.234Z,14.70
2023-01-04T18:19:46.459Z,15.00
2023-01-04T18:22:13.538Z,11.20
2023-01-04T18:24:40.649Z,15.00
2023-01-04T18:27:22.583Z,17.80
2023-01-04T18:29:53.592Z,17.50
2023-01-04T18:32:21.565Z,15.70
2023-01-04T18:34:48.612Z,15.80
2023-01-04T18:37:17.651Z,18.20
2023-01-04T18:39:44.519Z,17.80
2023-01-04T18:42:11.417Z,15.80
2023-01-04T18:44:45.683Z,14.40
2023-01-04T18:47:16.834Z,14.30
2023-01-04T18:49:43.725Z,15.50
2023-01-04T18:52:10.838Z,16.40
2023-01-04T18:54:38.489Z,18.40
2023-01-04T18:57:08.375Z,14.60
2023-01-04T18:59:36.687Z,14.20
2023-01-04T19:02:05.633Z,16.20
2023-01-04T19:04:34.274Z,17.90
2023-01-04T19:07:01.929Z,16.40
2023-01-04T19:09:35.554Z,14.00
2023-01-04T19:12:06.506Z,14.70
2023-01-04T19:14:34.455Z,14.50
2023-01-04T19:17:01.508Z,14.00
2023-01-04T19:19:28.263Z,15.50
2023-01-04T19:21:55.181Z,14.00
2023-01-04T19:24:22.210Z,14.80
2023-01-04T19:26:49.005Z,15.30
2023-01-04T19:29:15.838Z,13.40
2023-01-04T19:31:43.999Z,14.80
2023-01-04T19:34:10.759Z,13.40
2023-01-04T19:36:37.678Z,14.00
2023-01-04T19:39:08.580Z,13.80
2023-01-04T19:41:37.361Z,16.60
2023-01-04T19:44:06.556Z,17.20
2023-01-04T19:46:33.478Z,20.80
2023-01-04T19:49:03.003Z,20.30
2023-01-04T19:51:30.140Z,22.90
2023-01-04T19:53:57.103Z,25.50
2023-01-04T19:56:24.034Z,26.10
2023-01-04T19:58:53.671Z,29.20
2023-01-04T20:01:23.455Z,30.80
2023-01-04T20:03:50.775Z,30.50
2023-01-04T20:06:17.835Z,27.00
2023-01-04T20:08:44.646Z,29.70
2023-01-04T20:11:12.348Z,22.40
2023-01-04T20:13:39.729Z,23.50
2023-01-04T20:16:07.649Z,24.00
2023-01-04T20:18:36.178Z,24.50
2023-01-04T20:23:59.948Z,25.90
2023-01-04T20:26:28.156Z,22.70
2023-01-04T20:28:56.377Z,22.70
2023-01-04T20:31:23.207Z,23.10
2023-01-04T20:33:50.880Z,24.80
2023-01-04T20:36:21.230Z,22.80
2023-01-04T20:38:49.226Z,21.80
2023-01-04T20:41:20.371Z,21.60
2023-01-04T20:43:49.260Z,16.80
2023-01-04T20:46:20.068Z,17.10
2023-01-04T20:48:47.525Z,21.30
2023-01-04T20:51:18.461Z,17.90
2023-01-04T20:53:45.783Z,22.30
2023-01-04T20:56:13.956Z,26.30
2023-01-04T20:58:45.309Z,22.20
2023-01-04T21:01:13.040Z,24.40
2023-01-04T21:03:42.982Z,24.20
2023-01-04T21:06:13.937Z,21.80
2023-01-04T21:08:43.089Z,20.50
2023-01-04T21:11:12.709Z,19.00
2023-01-04T21:13:41.111Z,20.20
2023-01-04T21:16:10.444Z,22.50
2023-01-04T21:18:38.458Z,22.50
2023-01-04T21:21:07.479Z,23.30
2023-01-04T21:23:34.338Z,24.80
2023-01-04T21:26:06.983Z,25.70
2023-01-04T21:28:35.192Z,26.50
2023-01-04T21:31:07.849Z,22.50
2023-01-04T21:33:34.626Z,22.10
2023-01-04T21:36:17.852Z,23.20
2023-01-04T21:38:50.943Z,21.70
2023-01-04T21:41:24.032Z,20.70
2023-01-04T21:43:52.997Z,20.80
2023-01-04T21:46:20.328Z,19.90
2023-01-04T21:48:47.583Z,22.90
2023-01-04T21:51:14.942Z,24.00
2023-01-04T21:53:45.355Z,24.30
2023-01-04T21:56:15.942Z,27.90
2023-01-04T21:58:44.248Z,24.80
2023-01-04T22:01:17.315Z,23.30
2023-01-04T22:03:44.235Z,22.10
2023-01-04T22:06:13.171Z,19.80
2023-01-04T22:08:44.463Z,20.30
2023-01-04T22:11:12.350Z,20.80
2023-01-04T22:13:39.409Z,19.60
2023-01-04T22:16:08.328Z,21.40
2023-01-04T22:18:35.273Z,20.20
2023-01-04T22:21:08.125Z,20.40
2023-01-04T22:23:34.885Z,17.90
2023-01-04T22:26:02.266Z,20.20
2023-01-04T22:28:34.827Z,20.90
2023-01-04T22:31:06.582Z,18.10
2023-01-04T22:33:37.363Z,18.90
2023-01-04T22:36:12.700Z,18.30
2023-01-04T22:38:45.970Z,17.10
2023-01-04T22:41:15.606Z,19.00
2023-01-04T22:43:44.519Z,17.50
2023-01-04T22:46:17.401Z,18.30
2023-01-04T22:48:44.770Z,17.00
2023-01-04T22:51:14.335Z,16.40
2023-01-04T22:53:43.146Z,19.90
2023-01-04T22:56:20.177Z,16.20
2023-01-04T22:58:53.456Z,20.00
2023-01-04T23:01:26.946Z,18.80
2023-01-04T23:03:54.344Z,18.60
2023-01-04T23:06:21.429Z,18.20
2023-01-04T23:08:53.181Z,19.30
2023-01-04T23:11:19.995Z,18.20
2023-01-04T23:13:46.787Z,19.40
2023-01-04T23:16:15.284Z,18.00
2023-01-04T23:18:43.005Z,18.50
2023-01-04T23:21:10.357Z,17.90
2023-01-04T23:23:37.229Z,19.20
2023-01-04T23:26:16.337Z,20.80
2023-01-04T23:28:44.215Z,19.20
2023-01-04T23:31:14.109Z,20.10
2023-01-04T23:33:41.188Z,18.80
2023-01-04T23:36:13.299Z,18.90
2023-01-04T23:38:40.613Z,18.90
2023-01-04T23:41:07.840Z,19.00
2023-01-04T23:43:37.843Z,18.30
2023-01-04T23:46:07.784Z,18.40
2023-01-04T23:48:34.567Z,19.90
2023-01-04T23:51:01.631Z,21.90
2023-01-04T23:53:28.931Z,20.50
2023-01-04T23:55:59.253Z,18.40
2023-01-04T23:58:27.703Z,21.60
